Time;durP1;ratioP1;P1;durP2;ratioP2;P2;SDS_P1;SDS_P2;PMS_P1;PMS_P2;Temp;Humidity;BMP_temperature;BMP_pressure;BME280_temperature;BME280_humidity;BME280_pressure;Samples;Min_cycle;Max_cycle;Signal;HPM_P1;HPM_P2
2023/04/22 00:00:19;;;;;;;0.10;0.10;;;8.60;99.90;;;;;;5066005;28;20178;-87
2023/04/22 00:02:45;;;;;;;0.20;0.20;;;8.60;99.90;;;;;;5067806;28;20186;-86
2023/04/22 00:05:12;;;;;;;0.10;0.10;;;8.60;99.90;;;;;;5067394;28;20189;-86
2023/04/22 00:07:39;;;;;;;0.10;0.10;;;8.60;99.90;;;;;;5066164;28;20952;-86
2023/04/22 00:10:07;;;;;;;0.10;0.10;;;8.50;99.90;;;;;;5067039;28;21303;-86
2023/04/22 00:12:33;;;;;;;0.10;0.10;;;8.40;99.90;;;;;;5053817;28;20480;-85
2023/04/22 00:14:59;;;;;;;0.10;0.10;;;8.50;99.90;;;;;;5067044;28;20440;-85
2023/04/22 00:17:24;;;;;;;0.10;0.10;;;8.50;99.90;;;;;;5064492;28;20531;-86
2023/04/22 00:19:50;;;;;;;0.10;0.10;;;8.60;99.90;;;;;;5069760;28;20173;-86
2023/04/22 00:22:15;;;;;;;0.10;0.10;;;8.50;99.90;;;;;;5064963;28;20668;-86
2023/04/22 00:24:41;;;;;;;0.10;0.10;;;8.40;99.90;;;;;;5066443;28;20692;-86
2023/04/22 00:27:07;;;;;;;0.20;0.20;;;8.50;99.90;;;;;;5069107;28;20669;-86
2023/04/22 00:29:32;;;;;;;0.10;0.10;;;8.40;99.90;;;;;;5066749;28;20277;-86
2023/04/22 00:31:58;;;;;;;0.10;0.10;;;8.20;99.90;;;;;;5065445;28;20806;-86
2023/04/22 00:34:23;;;;;;;0.10;0.10;;;8.20;99.90;;;;;;5067702;28;20666;-85
2023/04/22 00:36:50;;;;;;;0.10;0.10;;;8.10;99.90;;;;;;5060978;28;20184;-86
2023/04/22 00:39:16;;;;;;;0.20;0.20;;;8.10;99.90;;;;;;5064312;28;20193;-86
2023/04/22 00:41:42;;;;;;;0.10;0.10;;;8.20;99.90;;;;;;5068626;28;20955;-87
2023/04/22 00:44:11;;;;;;;0.10;0.10;;;8.20;99.90;;;;;;5072365;28;20186;-86
2023/04/22 00:46:40;;;;;;;0.10;0.10;;;8.30;99.90;;;;;;5066192;28;20445;-86
2023/04/22 00:49:06;;;;;;;0.10;0.10;;;8.20;99.90;;;;;;5069008;28;20469;-86
2023/04/22 00:51:32;;;;;;;0.13;0.13;;;8.20;99.90;;;;;;5068513;28;20436;-86
2023/04/22 00:54:00;;;;;;;0.20;0.20;;;8.40;99.90;;;;;;5070588;28;20556;-86
2023/04/22 00:56:27;;;;;;;0.20;0.20;;;8.40;99.90;;;;;;5068535;28;20186;-85
2023/04/22 00:58:54;;;;;;;0.10;0.10;;;8.40;99.90;;;;;;5070875;28;20532;-86
2023/04/22 01:01:20;;;;;;;0.10;0.10;;;8.30;99.90;;;;;;5064478;28;20527;-86
2023/04/22 01:03:48;;;;;;;0.10;0.10;;;8.20;99.90;;;;;;5052163;28;20436;-86
2023/04/22 01:06:14;;;;;;;0.10;0.10;;;8.30;99.90;;;;;;5069633;28;20539;-87
2023/04/22 01:08:40;;;;;;;0.10;0.10;;;8.20;99.90;;;;;;5072132;28;20882;-86
2023/04/22 01:11:06;;;;;;;0.20;0.20;;;8.10;99.90;;;;;;5070726;28;20451;-86
2023/04/22 01:13:31;;;;;;;0.10;0.10;;;8.20;99.90;;;;;;5067880;28;20484;-86
2023/04/22 01:15:59;;;;;;;0.10;0.10;;;8.30;99.90;;;;;;5067370;28;20272;-87
2023/04/22 01:18:25;;;;;;;0.17;0.17;;;8.20;99.90;;;;;;5068831;28;20197;-86
2023/04/22 01:20:51;;;;;;;0.10;0.10;;;8.10;99.90;;;;;;5066274;28;20444;-87
2023/04/22 01:23:20;;;;;;;0.10;0.10;;;8.10;99.90;;;;;;5070832;28;20444;-86
2023/04/22 01:25:46;;;;;;;0.20;0.20;;;8.10;99.90;;;;;;5063486;28;20656;-86
2023/04/22 01:28:12;;;;;;;0.20;0.20;;;8.10;99.90;;;;;;5062730;28;20447;-86
2023/04/22 01:30:38;;;;;;;0.10;0.10;;;8.10;99.90;;;;;;5060931;28;20441;-86
2023/04/22 01:33:04;;;;;;;0.10;0.10;;;8.10;99.90;;;;;;5067669;28;20218;-86
2023/04/22 01:35:35;;;;;;;0.13;0.13;;;8.00;99.90;;;;;;5065487;28;20531;-86
2023/04/22 01:38:05;;;;;;;0.10;0.10;;;7.80;99.90;;;;;;5057036;28;21126;-86
2023/04/22 01:40:31;;;;;;;0.10;0.10;;;7.70;99.90;;;;;;5055070;28;20444;-86
2023/04/22 01:42:58;;;;;;;0.10;0.10;;;7.80;99.90;;;;;;5061232;28;20448;-86
2023/04/22 01:45:24;;;;;;;0.10;0.10;;;7.80;99.90;;;;;;5069495;28;22346;-87
2023/04/22 01:47:49;;;;;;;0.10;0.10;;;7.80;99.90;;;;;;5070201;28;20440;-86
2023/04/22 01:50:15;;;;;;;0.10;0.10;;;7.80;99.90;;;;;;5065153;28;20444;-87
2023/04/22 01:52:41;;;;;;;0.20;0.20;;;7.80;99.90;;;;;;5070544;28;20236;-86
2023/04/22 01:55:07;;;;;;;0.10;0.10;;;7.80;99.90;;;;;;5068207;28;20237;-86
2023/04/22 01:57:33;;;;;;;0.20;0.20;;;7.80;99.90;;;;;;5069129;28;20197;-86
2023/04/22 01:59:58;;;;;;;0.13;0.13;;;7.80;99.90;;;;;;5066558;28;20451;-86
2023/04/22 02:02:24;;;;;;;0.20;0.20;;;7.90;99.90;;;;;;5061275;28;20190;-86
2023/04/22 02:04:49;;;;;;;0.20;0.20;;;7.80;99.90;;;;;;5057532;28;20197;-86
2023/04/22 02:07:15;;;;;;;0.20;0.20;;;7.80;99.90;;;;;;5062345;28;20192;-87
2023/04/22 02:09:40;;;;;;;0.20;0.20;;;7.70;99.90;;;;;;5066598;28;20182;-86
2023/04/22 02:12:06;;;;;;;0.20;0.20;;;7.60;99.90;;;;;;5060221;28;20198;-87
2023/04/22 02:14:31;;;;;;;0.20;0.20;;;7.50;99.90;;;;;;5066764;28;20183;-86
2023/04/22 02:16:57;;;;;;;0.20;0.20;;;7.60;99.90;;;;;;5065937;28;20229;-86
2023/04/22 02:19:22;;;;;;;0.10;0.10;;;7.60;99.90;;;;;;5067192;28;20657;-86
2023/04/22 02:21:48;;;;;;;0.20;0.20;;;7.50;99.90;;;;;;5059734;28;20194;-86
2023/04/22 02:24:13;;;;;;;0.20;0.20;;;7.60;99.90;;;;;;5066962;28;20186;-86
2023/04/22 02:26:40;;;;;;;0.10;0.10;;;7.60;99.90;;;;;;5068611;28;20680;-86
2023/04/22 02:29:05;;;;;;;0.10;0.10;;;7.50;99.90;;;;;;5062113;28;20187;-86
2023/04/22 02:31:31;;;;;;;0.10;0.10;;;7.50;99.90;;;;;;5061042;28;20832;-86
2023/04/22 02:33:56;;;;;;;0.10;0.10;;;7.50;99.90;;;;;;5066072;28;20297;-86
2023/04/22 02:36:22;;;;;;;0.20;0.20;;;7.50;99.90;;;;;;5066933;28;20243;-84
2023/04/22 02:38:48;;;;;;;0.10;0.10;;;7.50;99.90;;;;;;5062079;28;20194;-86
2023/04/22 02:41:13;;;;;;;0.10;0.10;;;7.40;99.90;;;;;;5063560;28;20189;-86
2023/04/22 02:43:41;;;;;;;0.17;0.17;;;7.40;99.90;;;;;;5064209;28;20201;-86
2023/04/22 02:46:06;;;;;;;0.10;0.10;;;7.50;99.90;;;;;;5063669;28;20587;-86
2023/04/22 02:48:32;;;;;;;0.17;0.17;;;7.40;99.90;;;;;;5067624;28;20447;-85
2023/04/22 02:50:57;;;;;;;0.17;0.17;;;7.50;99.90;;;;;;5061520;28;20189;-87
2023/04/22 02:53:23;;;;;;;0.17;0.17;;;7.50;99.90;;;;;;5069077;28;20241;-86
2023/04/22 02:55:48;;;;;;;0.20;0.20;;;7.60;99.90;;;;;;5063810;28;20193;-87
2023/04/22 02:58:14;;;;;;;0.20;0.20;;;7.50;99.90;;;;;;5068661;28;20280;-86
2023/04/22 03:00:39;;;;;;;0.20;0.20;;;7.60;99.90;;;;;;5059592;28;20209;-88
2023/04/22 03:03:05;;;;;;;0.20;0.20;;;7.60;99.90;;;;;;5063615;28;20190;-87
2023/04/22 03:05:30;;;;;;;0.10;0.10;;;7.50;99.90;;;;;;5060147;28;20182;-87
2023/04/22 03:07:56;;;;;;;0.10;0.10;;;7.50;99.90;;;;;;5066844;28;20575;-86
2023/04/22 03:10:21;;;;;;;0.20;0.20;;;7.40;99.90;;;;;;5064993;28;20224;-85
2023/04/22 03:12:47;;;;;;;0.13;0.13;;;7.30;99.90;;;;;;5065640;28;20258;-86
2023/04/22 03:15:13;;;;;;;0.20;0.20;;;7.40;99.90;;;;;;5062040;28;20227;-86
2023/04/22 03:17:38;;;;;;;0.20;0.20;;;7.60;99.90;;;;;;5065350;28;20472;-86
2023/04/22 03:20:05;;;;;;;0.20;0.20;;;7.60;99.90;;;;;;5061400;28;20195;-87
2023/04/22 03:22:30;;;;;;;0.20;0.20;;;7.50;99.90;;;;;;5065404;28;20717;-86
2023/04/22 03:24:56;;;;;;;0.13;0.13;;;7.60;99.90;;;;;;5067584;28;20531;-87
2023/04/22 03:27:21;;;;;;;0.10;0.10;;;7.60;99.90;;;;;;5066710;28;20189;-87
2023/04/22 03:29:47;;;;;;;0.10;0.10;;;7.50;99.90;;;;;;5065706;28;20265;-86
2023/04/22 03:32:12;;;;;;;0.20;0.20;;;7.60;99.90;;;;;;5061761;28;20201;-86
2023/04/22 03:34:38;;;;;;;0.20;0.20;;;7.50;99.90;;;;;;5065495;28;20276;-87
2023/04/22 03:37:03;;;;;;;0.10;0.10;;;7.60;99.90;;;;;;5057652;28;20194;-86
2023/04/22 03:39:29;;;;;;;0.10;0.10;;;7.40;99.90;;;;;;5064351;28;20244;-87
2023/04/22 03:41:55;;;;;;;0.20;0.20;;;7.40;99.90;;;;;;5064820;28;20703;-87
2023/04/22 03:44:20;;;;;;;0.13;0.13;;;7.40;99.90;;;;;;5064952;28;20239;-87
2023/04/22 03:46:46;;;;;;;0.20;0.20;;;7.50;99.90;;;;;;5061727;28;20196;-85
2023/04/22 03:49:11;;;;;;;0.10;0.10;;;7.40;99.90;;;;;;5068044;28;20323;-87
2023/04/22 03:51:37;;;;;;;0.20;0.20;;;7.40;99.90;;;;;;5061289;28;20534;-87
2023/04/22 03:54:02;;;;;;;0.20;0.20;;;7.30;99.90;;;;;;5062952;28;20302;-86
2023/04/22 03:56:28;;;;;;;0.13;0.13;;;7.30;99.90;;;;;;5069358;28;20197;-87
2023/04/22 03:58:53;;;;;;;0.10;0.10;;;7.30;99.90;;;;;;5068026;28;20649;-86
2023/04/22 04:01:19;;;;;;;0.20;0.20;;;7.50;99.90;;;;;;5058168;28;20658;-87
2023/04/22 04:03:44;;;;;;;0.20;0.20;;;7.60;99.90;;;;;;5067578;28;20301;-86
2023/04/22 04:06:10;;;;;;;0.10;0.10;;;7.60;99.90;;;;;;5067671;28;20205;-87
2023/04/22 04:08:35;;;;;;;0.20;0.20;;;7.50;99.90;;;;;;5069637;28;20189;-85
2023/04/22 04:11:01;;;;;;;0.10;0.10;;;7.50;99.90;;;;;;5068130;28;20642;-87
2023/04/22 04:13:30;;;;;;;0.20;0.20;;;7.50;99.90;;;;;;5066666;28;20888;-87
2023/04/22 04:15:58;;;;;;;0.20;0.20;;;7.50;99.90;;;;;;5064939;28;20190;-87
2023/04/22 04:18:25;;;;;;;0.10;0.10;;;7.60;99.90;;;;;;5071359;28;20620;-87
2023/04/22 04:20:50;;;;;;;0.10;0.10;;;7.60;99.90;;;;;;5064115;28;20475;-85
2023/04/22 04:23:16;;;;;;;0.10;0.10;;;7.50;99.90;;;;;;5070803;28;20448;-85
2023/04/22 04:25:42;;;;;;;0.20;0.20;;;7.50;99.90;;;;;;5069175;28;20189;-87
2023/04/22 04:28:10;;;;;;;0.20;0.20;;;7.60;99.90;;;;;;5068558;28;20189;-86
2023/04/22 04:30:36;;;;;;;0.17;0.17;;;7.70;99.90;;;;;;5068324;28;20444;-87
2023/04/22 04:33:05;;;;;;;0.20;0.20;;;7.70;99.90;;;;;;5063091;28;20468;-85
2023/04/22 04:35:35;;;;;;;0.10;0.10;;;7.60;99.90;;;;;;5064535;28;20444;-87
2023/04/22 04:38:01;;;;;;;0.10;0.10;;;7.70;99.90;;;;;;5065897;28;20514;-88
2023/04/22 04:40:30;;;;;;;0.10;0.10;;;7.80;99.90;;;;;;5068762;28;20459;-86
2023/04/22 04:43:01;;;;;;;0.10;0.10;;;8.10;99.90;;;;;;5057959;28;20448;-86
2023/04/22 04:45:27;;;;;;;0.20;0.20;;;8.20;99.90;;;;;;5062258;28;20524;-87
2023/04/22 04:47:53;;;;;;;0.10;0.10;;;8.20;99.90;;;;;;5066417;28;20539;-86
2023/04/22 04:50:19;;;;;;;0.20;0.20;;;8.10;99.90;;;;;;5069220;28;20182;-86
2023/04/22 04:52:47;;;;;;;0.20;0.20;;;8.00;99.90;;;;;;5068170;28;20473;-85
2023/04/22 04:55:13;;;;;;;0.10;0.10;;;8.00;99.90;;;;;;5062742;28;20447;-86
2023/04/22 04:57:39;;;;;;;0.20;0.20;;;8.00;99.90;;;;;;5062417;28;20525;-86
2023/04/22 05:00:07;;;;;;;0.10;0.10;;;8.10;99.90;;;;;;5066273;28;20284;-86
2023/04/22 05:02:32;;;;;;;0.10;0.10;;;8.20;99.90;;;;;;5073709;28;20196;-86
2023/04/22 05:04:58;;;;;;;0.13;0.13;;;8.40;99.90;;;;;;5062725;28;20432;-86
2023/04/22 05:07:23;;;;;;;0.10;0.10;;;8.40;99.90;;;;;;5068203;28;20187;-87
2023/04/22 05:09:49;;;;;;;0.10;0.10;;;8.60;99.90;;;;;;5068013;28;20269;-87
2023/04/22 05:12:14;;;;;;;0.13;0.13;;;8.80;99.90;;;;;;5062371;28;20668;-87
2023/04/22 05:14:40;;;;;;;0.10;0.10;;;8.90;99.90;;;;;;5065182;28;20210;-85
2023/04/22 05:17:06;;;;;;;0.10;0.10;;;8.90;99.90;;;;;;5061046;28;20658;-86
2023/04/22 05:19:32;;;;;;;0.20;0.20;;;9.10;99.90;;;;;;5054680;28;20179;-87
2023/04/22 05:21:58;;;;;;;0.13;0.13;;;9.20;99.90;;;;;;5064033;28;20447;-85
2023/04/22 05:24:23;;;;;;;0.10;0.10;;;9.30;99.90;;;;;;5067481;28;20639;-85
2023/04/22 05:26:49;;;;;;;0.10;0.10;;;9.30;99.90;;;;;;5066273;28;20179;-86
2023/04/22 05:29:15;;;;;;;0.10;0.10;;;9.40;99.90;;;;;;5059521;28;20705;-87
2023/04/22 05:31:40;;;;;;;0.10;0.10;;;9.80;99.90;;;;;;5060923;28;20970;-84
2023/04/22 05:34:06;;;;;;;0.00;0.00;;;10.00;99.90;;;;;;5066556;28;20233;-78
2023/04/22 05:36:31;;;;;;;0.10;0.10;;;10.10;99.90;;;;;;5058706;28;20187;-78
2023/04/22 05:38:57;;;;;;;0.10;0.10;;;10.20;99.90;;;;;;5062545;28;20177;-78
2023/04/22 05:41:22;;;;;;;0.10;0.10;;;10.30;99.90;;;;;;5065850;28;20665;-78
2023/04/22 05:43:48;;;;;;;0.10;0.10;;;10.40;99.90;;;;;;5063704;28;20195;-78
2023/04/22 05:46:13;;;;;;;0.10;0.10;;;10.60;99.90;;;;;;5061653;28;20261;-77
2023/04/22 05:48:39;;;;;;;0.10;0.10;;;10.70;99.90;;;;;;5058348;28;20178;-78
2023/04/22 05:51:04;;;;;;;0.10;0.10;;;10.80;99.90;;;;;;5064469;28;20596;-80
2023/04/22 05:53:30;;;;;;;0.10;0.10;;;10.90;99.90;;;;;;5062124;28;20242;-80
2023/04/22 05:55:55;;;;;;;0.00;0.00;;;10.90;99.90;;;;;;5063757;28;20188;-81
2023/04/22 05:58:21;;;;;;;0.10;0.10;;;11.10;99.90;;;;;;5067287;28;20940;-78
2023/04/22 06:00:46;;;;;;;0.10;0.10;;;11.20;99.90;;;;;;5057725;28;20680;-80
2023/04/22 06:03:12;;;;;;;0.10;0.10;;;11.30;99.90;;;;;;5063644;28;20197;-80
2023/04/22 06:05:37;;;;;;;0.10;0.10;;;11.40;99.90;;;;;;5059618;28;20190;-81
2023/04/22 06:08:03;;;;;;;0.10;0.10;;;11.50;99.90;;;;;;5056490;28;20293;-79
2023/04/22 06:10:28;;;;;;;0.10;0.10;;;11.80;99.90;;;;;;5064854;28;20193;-78
2023/04/22 06:12:54;;;;;;;0.10;0.10;;;11.80;99.90;;;;;;5062684;28;20815;-80
2023/04/22 06:15:20;;;;;;;0.10;0.10;;;11.90;99.90;;;;;;5057407;28;20179;-80
2023/04/22 06:17:47;;;;;;;0.10;0.10;;;12.00;99.90;;;;;;5058579;28;20441;-81
2023/04/22 06:20:13;;;;;;;0.10;0.10;;;12.10;99.90;;;;;;5058358;28;20803;-81
2023/04/22 06:22:39;;;;;;;0.10;0.10;;;12.20;99.90;;;;;;5067476;28;20444;-80
2023/04/22 06:25:05;;;;;;;0.07;0.07;;;12.30;99.90;;;;;;5062034;28;20920;-80
2023/04/22 06:27:30;;;;;;;0.07;0.07;;;12.40;99.90;;;;;;5064217;28;20178;-80
2023/04/22 06:29:56;;;;;;;0.10;0.10;;;12.50;99.90;;;;;;5061840;28;20447;-82
2023/04/22 06:32:21;;;;;;;0.03;0.03;;;12.60;99.90;;;;;;5060540;28;20186;-82
2023/04/22 06:34:47;;;;;;;0.10;0.10;;;12.70;99.90;;;;;;5067233;28;20217;-80
2023/04/22 06:37:12;;;;;;;0.10;0.10;;;12.90;99.90;;;;;;5065817;28;21703;-81
2023/04/22 06:39:38;;;;;;;0.10;0.10;;;12.90;99.90;;;;;;5062781;28;20178;-81
2023/04/22 06:42:03;;;;;;;0.10;0.10;;;13.00;99.90;;;;;;5065901;28;20186;-81
2023/04/22 06:44:30;;;;;;;0.10;0.10;;;13.10;99.90;;;;;;5058410;28;20297;-81
2023/04/22 06:46:55;;;;;;;0.10;0.10;;;13.10;99.90;;;;;;5060772;28;20190;-81
2023/04/22 06:49:21;;;;;;;0.00;0.00;;;13.30;99.90;;;;;;5066232;28;20862;-81
2023/04/22 06:51:46;;;;;;;0.00;0.00;;;13.30;99.90;;;;;;5062327;28;22077;-81
2023/04/22 06:54:12;;;;;;;0.00;0.00;;;13.40;99.90;;;;;;5061332;28;20347;-87
2023/04/22 06:56:37;;;;;;;0.07;0.07;;;13.50;99.90;;;;;;5068738;28;20699;-86
2023/04/22 06:59:03;;;;;;;0.00;0.00;;;13.50;99.90;;;;;;5059583;28;20208;-88
2023/04/22 07:01:29;;;;;;;0.10;0.10;;;13.70;99.90;;;;;;5057358;28;20248;-87
2023/04/22 07:03:54;;;;;;;0.00;0.00;;;13.90;99.90;;;;;;5061016;28;20202;-87
2023/04/22 07:06:20;;;;;;;0.07;0.07;;;14.00;99.90;;;;;;5064051;28;20189;-87
2023/04/22 07:08:45;;;;;;;0.00;0.00;;;14.10;99.90;;;;;;5065688;28;20275;-88
2023/04/22 07:11:11;;;;;;;0.10;0.10;;;14.10;99.90;;;;;;5070221;28;20522;-87
2023/04/22 07:13:36;;;;;;;0.03;0.03;;;14.40;99.90;;;;;;5066163;28;20224;-87
2023/04/22 07:16:02;;;;;;;0.10;0.10;;;14.30;99.90;;;;;;5060000;28;20206;-85
2023/04/22 07:18:28;;;;;;;0.10;0.10;;;14.40;99.90;;;;;;5064680;28;20196;-86
2023/04/22 07:20:53;;;;;;;0.00;0.00;;;14.50;99.90;;;;;;5066943;28;20268;-86
2023/04/22 07:23:20;;;;;;;0.00;0.00;;;14.60;99.90;;;;;;5066443;28;20189;-86
2023/04/22 07:25:46;;;;;;;0.00;0.00;;;14.70;99.90;;;;;;5066802;28;20258;-86
2023/04/22 07:28:11;;;;;;;0.00;0.00;;;14.70;99.90;;;;;;5067642;28;20937;-87
2023/04/22 07:30:37;;;;;;;0.00;0.00;;;14.90;99.90;;;;;;5065424;28;20217;-88
2023/04/22 07:33:02;;;;;;;0.00;0.00;;;15.10;99.90;;;;;;5059879;28;20221;-87
2023/04/22 07:35:28;;;;;;;0.00;0.00;;;15.00;99.80;;;;;;5065065;28;20178;-87
2023/04/22 07:37:54;;;;;;;0.00;0.00;;;14.90;99.90;;;;;;5062949;28;20186;-86
2023/04/22 07:40:20;;;;;;;0.00;0.00;;;15.00;99.90;;;;;;5061059;28;20182;-87
2023/04/22 07:42:45;;;;;;;0.00;0.00;;;14.90;99.90;;;;;;5064081;28;20189;-87
2023/04/22 07:45:11;;;;;;;0.00;0.00;;;14.90;99.90;;;;;;5061345;28;20190;-87
2023/04/22 07:47:37;;;;;;;0.00;0.00;;;15.10;99.90;;;;;;5064563;28;20186;-86
2023/04/22 07:50:03;;;;;;;0.00;0.00;;;15.50;99.90;;;;;;5067782;28;20444;-87
2023/04/22 07:52:31;;;;;;;0.00;0.00;;;15.50;99.90;;;;;;5058131;28;20190;-88
2023/04/22 07:54:57;;;;;;;0.00;0.00;;;15.50;99.90;;;;;;5064508;28;20770;-87
2023/04/22 07:57:22;;;;;;;0.00;0.00;;;15.70;99.90;;;;;;5060626;28;20436;-87
2023/04/22 07:59:48;;;;;;;0.00;0.00;;;15.60;99.90;;;;;;5056320;28;20186;-86
2023/04/22 08:02:14;;;;;;;0.00;0.00;;;15.70;99.90;;;;;;5061628;28;20546;-87
2023/04/22 08:04:39;;;;;;;0.00;0.00;;;15.40;99.80;;;;;;5058675;28;20596;-86
2023/04/22 08:07:05;;;;;;;0.00;0.00;;;15.50;99.90;;;;;;5055433;28;20281;-85
2023/04/22 13:42:57;;;;;;;0.00;0.00;;;24.70;83.70;;;;;;5040640;27;1222200;-82
2023/04/22 13:45:24;;;;;;;0.00;0.00;;;24.40;90.40;;;;;;5050770;28;20216;-81
2023/04/22 13:47:52;;;;;;;0.00;0.00;;;24.70;92.00;;;;;;5057417;28;20497;-83
2023/04/22 13:50:17;;;;;;;0.00;0.00;;;25.00;93.40;;;;;;5061202;28;20463;-82
2023/04/22 13:52:43;;;;;;;0.00;0.00;;;25.10;94.60;;;;;;5059115;28;20936;-82
2023/04/22 13:55:09;;;;;;;0.00;0.00;;;25.60;96.90;;;;;;5047082;28;20244;-83
2023/04/22 13:57:35;;;;;;;0.00;0.00;;;25.40;95.60;;;;;;5057725;28;20179;-82
2023/04/22 14:00:00;;;;;;;0.00;0.00;;;25.40;96.50;;;;;;5057169;28;20448;-82
2023/04/22 14:02:26;;;;;;;0.00;0.00;;;25.80;98.20;;;;;;5053285;28;20226;-82
2023/04/22 14:04:51;;;;;;;0.00;0.00;;;26.10;99.90;;;;;;5056562;28;20611;-81
2023/04/22 14:07:17;;;;;;;0.00;0.00;;;25.70;99.90;;;;;;5059351;28;20297;-82
2023/04/22 14:09:42;;;;;;;0.00;0.00;;;25.60;99.90;;;;;;5057963;28;20182;-82
2023/04/22 14:12:09;;;;;;;0.00;0.00;;;25.90;99.30;;;;;;5066503;28;20626;-82
2023/04/22 14:14:35;;;;;;;0.00;0.00;;;26.20;99.90;;;;;;5043778;28;20249;-82
2023/04/22 14:17:01;;;;;;;0.00;0.00;;;26.00;99.80;;;;;;5045466;28;20457;-82
2023/04/22 14:19:27;;;;;;;0.00;0.00;;;25.90;99.90;;;;;;5048242;28;20225;-82
2023/04/22 14:21:53;;;;;;;0.00;0.00;;;25.40;99.90;;;;;;5057420;28;20679;-82
2023/04/22 14:24:18;;;;;;;0.00;0.00;;;25.60;99.90;;;;;;5058219;28;20441;-81
2023/04/22 14:26:44;;;;;;;0.00;0.00;;;25.40;99.90;;;;;;5066663;28;20227;-82
2023/04/22 14:29:10;;;;;;;0.00;0.00;;;24.90;99.90;;;;;;5064192;28;20181;-82
2023/04/22 14:31:35;;;;;;;0.00;0.00;;;25.00;99.90;;;;;;5064133;28;20194;-83
2023/04/22 14:34:01;;;;;;;0.00;0.00;;;25.30;99.90;;;;;;5049553;28;20197;-82
2023/04/22 14:36:26;;;;;;;0.00;0.00;;;24.90;99.90;;;;;;5047537;28;20712;-82
2023/04/22 14:38:52;;;;;;;0.00;0.00;;;24.50;99.90;;;;;;5060433;28;20556;-81
2023/04/22 14:41:17;;;;;;;0.00;0.00;;;24.30;99.90;;;;;;5054193;28;20234;-82
2023/04/22 14:43:43;;;;;;;0.00;0.00;;;24.20;99.90;;;;;;5048304;28;20302;-83
2023/04/22 14:46:08;;;;;;;0.00;0.00;;;23.70;99.90;;;;;;5055369;28;20241;-82
2023/04/22 14:48:34;;;;;;;0.00;0.00;;;23.90;99.90;;;;;;5044130;28;20270;-83
2023/04/22 14:51:00;;;;;;;0.00;0.00;;;23.50;99.90;;;;;;5046177;28;20714;-83
2023/04/22 14:53:26;;;;;;;0.00;0.00;;;23.70;99.90;;;;;;5044017;28;20195;-83
2023/04/22 14:55:52;;;;;;;0.00;0.00;;;23.60;99.90;;;;;;5036859;28;21174;-83
2023/04/22 14:58:18;;;;;;;0.00;0.00;;;23.60;99.90;;;;;;5050036;28;20186;-82
2023/04/22 15:00:43;;;;;;;0.00;0.00;;;23.50;99.90;;;;;;5035930;28;20187;-82
2023/04/22 15:03:09;;;;;;;0.00;0.00;;;23.40;99.90;;;;;;5028593;28;20634;-82
2023/04/22 15:05:35;;;;;;;0.00;0.00;;;23.40;99.90;;;;;;5053074;28;20189;-83
2023/04/22 15:08:00;;;;;;;0.00;0.00;;;23.00;99.90;;;;;;5051468;28;20218;-83
2023/04/22 15:10:26;;;;;;;0.00;0.00;;;22.90;99.90;;;;;;5045360;28;20826;-84
2023/04/22 15:12:52;;;;;;;0.00;0.00;;;22.90;99.90;;;;;;5044813;28;20270;-84
2023/04/22 15:15:18;;;;;;;0.00;0.00;;;22.90;99.90;;;;;;5039863;28;20191;-83
2023/04/22 15:17:44;;;;;;;0.00;0.00;;;22.70;99.90;;;;;;5038551;28;20455;-82
2023/04/22 15:20:11;;;;;;;0.00;0.00;;;22.90;99.90;;;;;;5037202;28;20746;-82
2023/04/22 15:22:39;;;;;;;0.00;0.00;;;22.80;99.90;;;;;;5048616;28;20485;-82
2023/04/22 15:25:06;;;;;;;0.00;0.00;;;22.80;99.90;;;;;;5036941;28;20468;-83
2023/04/22 15:27:31;;;;;;;0.00;0.00;;;22.70;99.90;;;;;;5044368;28;20437;-82
2023/04/22 15:29:57;;;;;;;0.00;0.00;;;22.90;99.90;;;;;;5045387;28;20499;-83
2023/04/22 15:32:22;;;;;;;0.00;0.00;;;22.80;99.90;;;;;;5038719;28;20276;-82
2023/04/22 15:34:48;;;;;;;0.00;0.00;;;22.70;99.90;;;;;;5043002;28;20236;-82
2023/04/22 15:37:14;;;;;;;0.00;0.00;;;22.50;99.90;;;;;;5034266;28;20251;-83
2023/04/22 15:39:40;;;;;;;0.00;0.00;;;22.60;99.90;;;;;;5031200;28;20194;-83
2023/04/22 15:42:06;;;;;;;0.00;0.00;;;22.40;99.90;;;;;;5029472;28;20486;-82
2023/04/22 15:44:31;;;;;;;0.00;0.00;;;22.40;99.90;;;;;;5027799;28;20191;-81
2023/04/22 15:46:58;;;;;;;0.00;0.00;;;22.50;99.90;;;;;;5031529;28;20532;-83
2023/04/22 15:49:24;;;;;;;0.00;0.00;;;22.40;99.90;;;;;;5035564;28;20202;-84
2023/04/22 15:51:50;;;;;;;0.00;0.00;;;22.50;99.90;;;;;;5032133;28;20452;-82
2023/04/22 15:54:16;;;;;;;0.00;0.00;;;22.60;99.90;;;;;;5037685;28;20436;-82
2023/04/22 15:56:41;;;;;;;0.00;0.00;;;22.80;99.90;;;;;;5029644;28;20457;-83
2023/04/22 15:59:07;;;;;;;0.00;0.00;;;22.70;99.90;;;;;;5040662;28;20292;-83
2023/04/22 16:01:32;;;;;;;0.00;0.00;;;22.70;99.90;;;;;;5042249;28;20704;-83
2023/04/22 16:03:58;;;;;;;0.00;0.00;;;22.70;99.90;;;;;;5040419;28;20217;-82
2023/04/22 16:06:24;;;;;;;0.00;0.00;;;22.70;99.90;;;;;;5029555;28;20183;-84
2023/04/22 16:08:49;;;;;;;0.00;0.00;;;22.70;99.90;;;;;;5033404;28;20191;-83
2023/04/22 16:11:15;;;;;;;0.00;0.00;;;22.80;99.90;;;;;;5047352;28;20193;-84
2023/04/22 16:13:40;;;;;;;0.00;0.00;;;22.70;99.90;;;;;;5044896;28;20682;-83
2023/04/22 16:16:06;;;;;;;0.00;0.00;;;22.80;99.90;;;;;;5044140;28;20187;-84
2023/04/22 16:18:32;;;;;;;0.00;0.00;;;22.70;99.90;;;;;;5032814;28;20620;-82
2023/04/22 16:20:59;;;;;;;0.00;0.00;;;22.50;99.90;;;;;;5033033;28;20564;-82
2023/04/22 16:23:25;;;;;;;0.00;0.00;;;22.50;99.90;;;;;;5031482;28;21008;-82
2023/04/22 16:25:51;;;;;;;0.00;0.00;;;22.40;99.90;;;;;;5032645;28;20441;-83
2023/04/22 16:28:16;;;;;;;0.00;0.00;;;22.30;99.90;;;;;;5040978;28;20979;-82
2023/04/22 16:30:42;;;;;;;0.00;0.00;;;22.30;99.00;;;;;;5026560;28;20186;-84
2023/04/22 16:33:08;;;;;;;0.00;0.00;;;22.30;90.90;;;;;;5045996;28;20228;-83
2023/04/22 16:35:34;;;;;;;0.00;0.00;;;22.30;91.30;;;;;;5035025;28;20194;-83
2023/04/22 16:38:00;;;;;;;0.00;0.00;;;22.20;91.70;;;;;;5032275;28;20446;-81
2023/04/22 16:40:25;;;;;;;0.00;0.00;;;22.20;91.20;;;;;;5034540;28;21050;-82
2023/04/22 16:42:51;;;;;;;0.00;0.00;;;22.20;91.60;;;;;;5039716;28;20251;-82
2023/04/22 16:45:17;;;;;;;0.00;0.00;;;22.10;91.70;;;;;;5037771;28;20190;-82
2023/04/22 16:47:42;;;;;;;0.00;0.00;;;22.10;91.40;;;;;;5043343;28;20195;-82
2023/04/22 16:50:12;;;;;;;0.00;0.00;;;22.10;91.50;;;;;;5033617;28;20278;-81
2023/04/22 16:52:38;;;;;;;0.00;0.00;;;22.00;91.80;;;;;;5035146;28;20189;-82
2023/04/22 16:55:05;;;;;;;0.00;0.00;;;22.10;92.00;;;;;;5037877;28;20472;-82
2023/04/22 16:57:31;;;;;;;0.00;0.00;;;22.00;92.20;;;;;;5029291;28;20814;-82
2023/04/22 16:59:56;;;;;;;0.00;0.00;;;21.90;91.40;;;;;;5038971;28;20450;-81
2023/04/22 17:02:22;;;;;;;0.00;0.00;;;21.80;91.60;;;;;;5028236;28;21072;-81
2023/04/22 17:04:47;;;;;;;0.00;0.00;;;21.80;91.20;;;;;;5034671;28;20195;-82
2023/04/22 17:07:13;;;;;;;0.00;0.00;;;21.70;91.60;;;;;;5042722;28;20194;-85
2023/04/22 17:09:38;;;;;;;0.00;0.00;;;21.70;91.50;;;;;;5031307;28;20183;-83
2023/04/22 17:12:05;;;;;;;0.00;0.00;;;21.70;91.50;;;;;;5028662;28;20663;-84
2023/04/22 17:14:30;;;;;;;0.00;0.00;;;21.70;91.70;;;;;;5029525;28;20279;-85
2023/04/22 17:16:56;;;;;;;0.00;0.00;;;21.60;91.20;;;;;;5024850;28;20541;-84
2023/04/22 17:19:21;;;;;;;0.00;0.00;;;21.60;91.60;;;;;;5040631;28;20214;-83
2023/04/22 17:21:47;;;;;;;0.00;0.00;;;21.40;91.60;;;;;;5035886;28;20285;-84
2023/04/22 17:24:12;;;;;;;0.00;0.00;;;21.30;91.90;;;;;;5040242;28;22753;-84
2023/04/22 17:26:38;;;;;;;0.00;0.00;;;21.30;91.70;;;;;;5043327;28;20280;-83
2023/04/22 17:29:04;;;;;;;0.00;0.00;;;21.30;92.10;;;;;;5033536;28;20179;-83
2023/04/22 17:31:30;;;;;;;0.00;0.00;;;21.20;91.60;;;;;;5030919;28;20192;-83
2023/04/22 17:33:56;;;;;;;0.00;0.00;;;21.10;92.00;;;;;;5048249;28;20189;-84
2023/04/22 17:36:21;;;;;;;0.00;0.00;;;21.10;91.80;;;;;;5045480;28;20449;-83
2023/04/22 17:38:47;;;;;;;0.00;0.00;;;21.10;91.80;;;;;;5033845;28;20187;-82
2023/04/22 17:41:13;;;;;;;0.00;0.00;;;21.10;92.00;;;;;;5024249;28;20232;-82
2023/04/22 17:43:38;;;;;;;0.00;0.00;;;21.10;91.90;;;;;;5032800;28;20193;-81
2023/04/22 17:46:04;;;;;;;0.00;0.00;;;21.10;91.80;;;;;;5033629;28;20271;-81
2023/04/22 17:48:29;;;;;;;0.00;0.00;;;20.90;92.00;;;;;;5032978;28;20183;-81
2023/04/22 17:50:55;;;;;;;0.00;0.00;;;20.80;92.30;;;;;;5037565;28;20191;-82
2023/04/22 17:53:20;;;;;;;0.00;0.00;;;20.90;92.50;;;;;;5043734;28;20194;-82
2023/04/22 17:55:46;;;;;;;0.00;0.00;;;20.80;92.30;;;;;;5027857;28;20194;-82
2023/04/22 17:58:12;;;;;;;0.00;0.00;;;20.80;92.30;;;;;;5042234;28;20189;-80
2023/04/22 18:00:37;;;;;;;0.00;0.00;;;20.60;92.40;;;;;;5035626;28;21186;-81
2023/04/22 18:03:04;;;;;;;0.00;0.00;;;20.60;92.90;;;;;;5027292;28;20760;-81
2023/04/22 18:05:30;;;;;;;0.00;0.00;;;20.60;92.90;;;;;;5031036;28;20670;-81
2023/04/22 18:08:02;;;;;;;0.00;0.00;;;20.40;93.10;;;;;;5028632;28;20434;-83
2023/04/22 18:10:29;;;;;;;0.00;0.00;;;20.40;92.60;;;;;;5042181;28;20191;-81
2023/04/22 18:12:55;;;;;;;0.00;0.00;;;20.40;92.80;;;;;;5031477;28;20430;-81
2023/04/22 18:15:22;;;;;;;0.00;0.00;;;20.40;92.70;;;;;;5042075;28;20437;-83